Time;durP1;ratioP1;P1;durP2;ratioP2;P2;SDS_P1;SDS_P2;PMS_P1;PMS_P2;Temp;Humidity;BMP_temperature;BMP_pressure;BME280_temperature;BME280_humidity;BME280_pressure;Samples;Min_cycle;Max_cycle;Signal;HPM_P1;HPM_P2
2022/12/18 00:01:19;;;;;;;;;64.75;52.00;;;;;;;;5059523;28;45495;-77
2022/12/18 00:03:44;;;;;;;;;67.00;56.00;;;;;;;;5059331;28;46172;-76
2022/12/18 00:06:10;;;;;;;;;69.00;56.00;;;;;;;;5059378;28;45354;-76
2022/12/18 00:08:35;;;;;;;;;70.50;58.00;;;;;;;;5057434;28;45248;-76
2022/12/18 00:11:04;;;;;;;;;70.00;56.75;;;;;;;;5058069;28;45946;-76
2022/12/18 00:13:29;;;;;;;;;67.00;56.75;;;;;;;;5059065;28;46226;-76
2022/12/18 00:15:54;;;;;;;;;68.50;56.25;;;;;;;;5059616;28;45318;-76
2022/12/18 00:18:19;;;;;;;;;72.00;56.50;;;;;;;;5059151;28;45314;-77
2022/12/18 00:20:44;;;;;;;;;76.75;60.50;;;;;;;;5059132;28;45265;-77
2022/12/18 00:23:10;;;;;;;;;83.00;63.25;;;;;;;;5058990;28;46053;-76
2022/12/18 00:25:36;;;;;;;;;77.00;61.25;;;;;;;;5059249;28;45192;-76
2022/12/18 00:28:02;;;;;;;;;75.50;60.25;;;;;;;;5057983;28;45353;-76
2022/12/18 00:30:27;;;;;;;;;73.00;59.50;;;;;;;;5059104;28;45304;-77
2022/12/18 00:32:52;;;;;;;;;78.00;57.50;;;;;;;;5057619;28;47471;-76
2022/12/18 00:35:17;;;;;;;;;76.25;60.50;;;;;;;;5058966;28;45401;-76
2022/12/18 00:37:43;;;;;;;;;76.75;62.50;;;;;;;;5058987;28;45207;-76
2022/12/18 00:40:08;;;;;;;;;74.25;61.00;;;;;;;;5057668;28;47041;-76
2022/12/18 00:45:25;;;;;;;;;70.75;58.00;;;;;;;;5058926;28;45317;-77
2022/12/18 00:47:50;;;;;;;;;73.75;61.00;;;;;;;;5052365;28;45353;-76
2022/12/18 00:50:16;;;;;;;;;72.00;56.00;;;;;;;;5049879;28;45290;-77
2022/12/18 00:52:41;;;;;;;;;71.75;59.50;;;;;;;;5057329;28;47025;-76
2022/12/18 00:55:07;;;;;;;;;76.00;60.25;;;;;;;;5057622;28;45498;-77
2022/12/18 00:57:32;;;;;;;;;73.00;57.00;;;;;;;;5058819;28;45303;-76
2022/12/18 00:59:57;;;;;;;;;65.50;53.00;;;;;;;;5058801;28;45583;-77
2022/12/18 01:02:22;;;;;;;;;66.25;51.75;;;;;;;;5058534;28;46096;-76
2022/12/18 01:04:47;;;;;;;;;70.50;59.00;;;;;;;;5057471;28;45271;-76
2022/12/18 01:07:13;;;;;;;;;71.25;58.50;;;;;;;;5058626;28;45307;-76
2022/12/18 01:09:38;;;;;;;;;66.00;55.75;;;;;;;;5058742;28;45331;-76
2022/12/18 01:12:03;;;;;;;;;69.25;58.25;;;;;;;;5058602;28;45424;-76
2022/12/18 01:14:28;;;;;;;;;71.00;59.00;;;;;;;;5058685;28;45327;-75
2022/12/18 01:16:53;;;;;;;;;74.75;61.75;;;;;;;;5057234;28;45319;-76
2022/12/18 01:19:19;;;;;;;;;67.25;56.50;;;;;;;;5057407;28;47252;-76
2022/12/18 01:21:45;;;;;;;;;70.75;58.75;;;;;;;;5061669;28;46082;-76
2022/12/18 01:24:11;;;;;;;;;62.50;51.00;;;;;;;;5061921;28;45400;-76
2022/12/18 01:26:36;;;;;;;;;71.25;57.50;;;;;;;;5060652;28;45469;-77
2022/12/18 01:29:02;;;;;;;;;66.50;53.75;;;;;;;;5062101;28;45489;-76
2022/12/18 01:31:28;;;;;;;;;67.00;55.25;;;;;;;;5061576;28;45244;-77
2022/12/18 01:33:54;;;;;;;;;68.50;55.00;;;;;;;;5062049;28;45287;-76
2022/12/18 01:36:26;;;;;;;;;67.25;57.25;;;;;;;;5061602;28;45357;-76
2022/12/18 01:38:52;;;;;;;;;60.25;47.50;;;;;;;;5061677;28;45346;-77
2022/12/18 01:41:18;;;;;;;;;73.50;59.25;;;;;;;;5061459;28;45351;-77
2022/12/18 01:43:43;;;;;;;;;71.25;57.50;;;;;;;;5061846;28;45322;-76
2022/12/18 01:46:09;;;;;;;;;69.50;57.25;;;;;;;;5061807;28;45637;-76
2022/12/18 01:48:34;;;;;;;;;75.25;57.50;;;;;;;;5061698;28;45269;-77
2022/12/18 01:51:02;;;;;;;;;64.75;52.00;;;;;;;;5059857;28;48194;-76
2022/12/18 01:53:28;;;;;;;;;74.50;58.25;;;;;;;;5061492;28;45405;-76
2022/12/18 01:55:55;;;;;;;;;72.25;59.50;;;;;;;;5061584;28;45351;-76
2022/12/18 01:58:23;;;;;;;;;67.25;55.25;;;;;;;;5061558;28;45468;-76
2022/12/18 02:00:49;;;;;;;;;72.50;60.50;;;;;;;;5060036;28;48277;-76
2022/12/18 02:03:14;;;;;;;;;67.50;53.50;;;;;;;;5061421;28;45187;-76
2022/12/18 02:05:48;;;;;;;;;65.50;55.00;;;;;;;;5059980;28;45231;-76
2022/12/18 02:08:13;;;;;;;;;70.50;56.25;;;;;;;;5061339;28;45399;-76
2022/12/18 02:10:53;;;;;;;;;73.75;56.25;;;;;;;;5059902;28;47127;-76
2022/12/18 02:13:31;;;;;;;;;67.25;56.25;;;;;;;;5061248;28;45239;-76
2022/12/18 02:15:57;;;;;;;;;72.00;58.00;;;;;;;;5061482;28;45362;-76
2022/12/18 02:18:28;;;;;;;;;66.00;54.50;;;;;;;;5059654;28;46867;-76
2022/12/18 02:20:58;;;;;;;;;74.25;57.75;;;;;;;;5059582;28;47180;-75
2022/12/18 02:23:23;;;;;;;;;66.25;53.00;;;;;;;;5060843;28;45381;-76
2022/12/18 02:26:07;;;;;;;;;65.25;53.50;;;;;;;;5061362;28;45695;-76
2022/12/18 02:28:35;;;;;;;;;66.25;55.75;;;;;;;;5060876;28;45485;-76
2022/12/18 02:31:02;;;;;;;;;66.75;54.00;;;;;;;;5059095;28;46324;-76
2022/12/18 02:33:29;;;;;;;;;62.50;54.25;;;;;;;;5060818;28;45259;-76
2022/12/18 02:35:55;;;;;;;;;63.25;54.75;;;;;;;;5061022;28;45318;-76
2022/12/18 02:38:22;;;;;;;;;68.00;55.00;;;;;;;;5060702;28;45500;-76
2022/12/18 02:40:48;;;;;;;;;63.25;51.25;;;;;;;;5060858;28;46516;-76
2022/12/18 02:43:14;;;;;;;;;67.25;52.25;;;;;;;;5060563;28;45312;-76
2022/12/18 02:45:47;;;;;;;;;53.50;46.00;;;;;;;;5060895;28;45743;-76
2022/12/18 02:48:12;;;;;;;;;67.00;55.50;;;;;;;;5048056;28;45430;-76
2022/12/18 02:50:41;;;;;;;;;58.75;49.75;;;;;;;;5059162;28;48052;-76
2022/12/18 02:53:24;;;;;;;;;58.25;49.75;;;;;;;;5060703;28;45220;-77
2022/12/18 02:55:52;;;;;;;;;61.00;52.00;;;;;;;;5060585;28;45251;-76
2022/12/18 02:58:20;;;;;;;;;60.75;51.25;;;;;;;;5059336;28;46144;-76
2022/12/18 03:00:45;;;;;;;;;59.50;49.00;;;;;;;;5060421;28;45496;-76
2022/12/18 03:03:17;;;;;;;;;67.25;53.75;;;;;;;;5060502;28;45244;-76
2022/12/18 03:06:01;;;;;;;;;64.25;52.50;;;;;;;;5060354;28;45269;-76
2022/12/18 03:08:31;;;;;;;;;58.00;48.00;;;;;;;;5060193;28;45276;-76
2022/12/18 03:11:02;;;;;;;;;60.00;51.75;;;;;;;;5060423;28;46616;-76
2022/12/18 03:13:30;;;;;;;;;65.75;50.00;;;;;;;;5060150;28;45389;-75
2022/12/18 03:15:56;;;;;;;;;68.00;55.00;;;;;;;;5059307;28;45322;-76
2022/12/18 03:18:29;;;;;;;;;63.25;49.00;;;;;;;;5059970;28;45511;-76
2022/12/18 03:20:55;;;;;;;;;64.00;49.50;;;;;;;;5060065;28;45372;-76
2022/12/18 03:23:24;;;;;;;;;60.50;49.75;;;;;;;;5059897;28;45342;-76
2022/12/18 03:25:51;;;;;;;;;67.25;55.75;;;;;;;;5059010;28;45319;-76
2022/12/18 03:28:19;;;;;;;;;60.75;51.50;;;;;;;;5058666;28;47348;-76
2022/12/18 03:30:46;;;;;;;;;63.50;52.00;;;;;;;;5060115;28;45318;-76
2022/12/18 03:33:15;;;;;;;;;39.25;30.50;;;;;;;;5059856;28;45318;-76
2022/12/18 03:35:42;;;;;;;;;62.50;47.75;;;;;;;;5059899;28;45489;-76
2022/12/18 03:38:08;;;;;;;;;55.75;46.25;;;;;;;;5059867;28;45284;-76
2022/12/18 03:40:46;;;;;;;;;62.00;51.25;;;;;;;;5059731;28;46495;-76
2022/12/18 03:43:19;;;;;;;;;57.75;48.25;;;;;;;;5058816;28;45232;-76
2022/12/18 03:45:50;;;;;;;;;57.00;48.75;;;;;;;;5059984;28;45851;-76
2022/12/18 03:48:19;;;;;;;;;61.25;50.00;;;;;;;;5059958;28;45388;-76
2022/12/18 03:50:44;;;;;;;;;57.50;49.25;;;;;;;;5058282;28;47254;-76
2022/12/18 03:53:15;;;;;;;;;64.00;52.50;;;;;;;;5059748;28;45461;-76
2022/12/18 03:55:41;;;;;;;;;65.75;51.50;;;;;;;;5059787;28;45338;-77
2022/12/18 03:58:07;;;;;;;;;63.75;51.25;;;;;;;;5059698;28;45340;-76
2022/12/18 04:00:33;;;;;;;;;67.00;52.50;;;;;;;;5059489;28;45427;-76
2022/12/18 04:03:00;;;;;;;;;54.50;48.75;;;;;;;;5059592;28;45224;-76
2022/12/18 04:05:26;;;;;;;;;60.25;49.00;;;;;;;;5059330;28;45315;-77
2022/12/18 04:07:53;;;;;;;;;66.50;52.00;;;;;;;;5059548;28;45315;-76
2022/12/18 04:10:19;;;;;;;;;74.00;56.50;;;;;;;;5057948;28;47658;-76
2022/12/18 04:12:44;;;;;;;;;60.50;48.50;;;;;;;;5059666;28;45216;-76
2022/12/18 04:15:10;;;;;;;;;55.00;46.75;;;;;;;;5059467;28;45221;-76
2022/12/18 04:17:36;;;;;;;;;49.50;45.25;;;;;;;;5057964;28;46519;-76
2022/12/18 04:20:01;;;;;;;;;61.50;48.00;;;;;;;;5059170;28;46309;-76
2022/12/18 04:22:27;;;;;;;;;57.25;47.50;;;;;;;;5059280;28;45327;-77
2022/12/18 04:24:52;;;;;;;;;51.00;44.75;;;;;;;;5059481;28;45302;-76
2022/12/18 04:27:17;;;;;;;;;64.00;54.75;;;;;;;;5059228;28;45379;-76
2022/12/18 04:29:42;;;;;;;;;50.50;45.50;;;;;;;;5059164;28;45203;-77
2022/12/18 04:32:08;;;;;;;;;66.50;52.75;;;;;;;;5059283;28;45362;-77
2022/12/18 04:34:33;;;;;;;;;55.75;48.25;;;;;;;;5059187;28;45224;-77
2022/12/18 04:36:58;;;;;;;;;68.00;53.00;;;;;;;;5059098;28;45288;-76
2022/12/18 04:39:23;;;;;;;;;51.75;41.00;;;;;;;;5058729;28;45437;-76
2022/12/18 04:41:48;;;;;;;;;59.00;48.75;;;;;;;;5057811;28;45383;-76
2022/12/18 04:44:14;;;;;;;;;60.75;51.00;;;;;;;;5059211;28;45302;-76
2022/12/18 04:46:39;;;;;;;;;62.50;52.25;;;;;;;;5058923;28;45465;-76
2022/12/18 04:49:04;;;;;;;;;61.75;47.00;;;;;;;;5058776;28;46640;-77
2022/12/18 04:51:30;;;;;;;;;64.75;54.00;;;;;;;;5058798;28;45382;-77
2022/12/18 04:53:55;;;;;;;;;64.25;52.50;;;;;;;;5058671;28;45390;-76
2022/12/18 04:56:20;;;;;;;;;60.00;47.00;;;;;;;;5062585;28;45549;-76
2022/12/18 04:58:45;;;;;;;;;64.50;52.50;;;;;;;;5061057;28;48464;-76
2022/12/18 05:01:11;;;;;;;;;62.00;50.00;;;;;;;;5062600;28;45311;-77
2022/12/18 05:03:37;;;;;;;;;53.00;47.00;;;;;;;;5062416;28;45248;-76
2022/12/18 05:06:03;;;;;;;;;58.00;47.50;;;;;;;;5060932;28;46100;-77
2022/12/18 05:08:28;;;;;;;;;65.50;52.25;;;;;;;;5062047;28;46379;-77
2022/12/18 05:11:04;;;;;;;;;64.50;52.00;;;;;;;;5062420;28;45294;-76
2022/12/18 05:13:29;;;;;;;;;60.00;50.75;;;;;;;;5062311;28;45450;-76
2022/12/18 05:15:55;;;;;;;;;63.75;51.50;;;;;;;;5062263;28;45284;-77
2022/12/18 05:18:20;;;;;;;;;61.50;51.50;;;;;;;;5060536;28;47362;-76
2022/12/18 05:20:45;;;;;;;;;60.00;49.75;;;;;;;;5062110;28;45256;-76
2022/12/18 05:23:11;;;;;;;;;57.50;49.25;;;;;;;;5061980;28;45283;-77
2022/12/18 05:25:36;;;;;;;;;60.75;50.75;;;;;;;;5060618;28;46158;-77
2022/12/18 05:28:01;;;;;;;;;65.25;53.25;;;;;;;;5060505;28;47009;-76
2022/12/18 05:30:27;;;;;;;;;66.50;51.50;;;;;;;;5060741;28;45911;-77
2022/12/18 05:32:52;;;;;;;;;63.75;51.75;;;;;;;;5062023;28;45215;-77
2022/12/18 05:35:17;;;;;;;;;58.75;49.75;;;;;;;;5061617;28;45445;-77
2022/12/18 05:37:43;;;;;;;;;64.25;49.25;;;;;;;;5061717;28;46322;-77
2022/12/18 05:40:08;;;;;;;;;56.25;48.00;;;;;;;;5060574;28;46022;-76
2022/12/18 05:42:33;;;;;;;;;58.25;48.75;;;;;;;;5061755;28;45212;-76
2022/12/18 05:44:59;;;;;;;;;60.00;47.75;;;;;;;;5061885;28;45244;-76
2022/12/18 05:47:24;;;;;;;;;68.25;52.50;;;;;;;;5061320;28;45303;-77
2022/12/18 05:49:49;;;;;;;;;51.25;46.25;;;;;;;;5060331;28;45363;-77
2022/12/18 05:52:14;;;;;;;;;59.25;51.50;;;;;;;;5061691;28;45491;-76
2022/12/18 05:54:40;;;;;;;;;51.25;47.50;;;;;;;;5061569;28;45580;-76
2022/12/18 05:57:05;;;;;;;;;57.50;51.50;;;;;;;;5061468;28;45277;-76
2022/12/18 05:59:30;;;;;;;;;56.50;50.00;;;;;;;;5061613;28;45302;-77
2022/12/18 06:01:55;;;;;;;;;54.00;48.00;;;;;;;;5061806;28;45475;-76
2022/12/18 06:04:20;;;;;;;;;57.75;48.75;;;;;;;;5075123;28;45361;-76
2022/12/18 06:06:46;;;;;;;;;66.25;55.50;;;;;;;;5060474;28;46015;-76
2022/12/18 06:09:11;;;;;;;;;67.50;54.75;;;;;;;;5061409;28;45336;-77
2022/12/18 06:11:37;;;;;;;;;59.00;50.00;;;;;;;;5061496;28;45399;-77
2022/12/18 06:14:03;;;;;;;;;61.75;49.25;;;;;;;;5061371;28;45485;-77
2022/12/18 06:16:28;;;;;;;;;53.50;48.00;;;;;;;;5061300;28;45363;-76
2022/12/18 06:18:57;;;;;;;;;62.25;50.25;;;;;;;;5059836;28;45714;-76
2022/12/18 06:21:23;;;;;;;;;60.00;52.25;;;;;;;;5059784;28;45455;-77
2022/12/18 06:23:48;;;;;;;;;70.25;58.75;;;;;;;;5059615;28;45982;-76
2022/12/18 06:26:13;;;;;;;;;67.25;54.25;;;;;;;;5061125;28;45218;-76
2022/12/18 06:28:38;;;;;;;;;60.50;51.00;;;;;;;;5061003;28;45235;-76
2022/12/18 06:31:04;;;;;;;;;59.00;50.25;;;;;;;;5061402;28;45457;-76
2022/12/18 06:33:29;;;;;;;;;54.25;49.75;;;;;;;;5059479;28;45906;-77
2022/12/18 06:36:00;;;;;;;;;57.75;50.75;;;;;;;;5060913;28;46407;-76
2022/12/18 06:38:25;;;;;;;;;55.75;47.00;;;;;;;;5060960;28;45208;-77
2022/12/18 06:40:50;;;;;;;;;62.50;52.50;;;;;;;;5060896;28;45386;-77
2022/12/18 06:43:15;;;;;;;;;55.50;48.25;;;;;;;;5060994;28;45555;-76
2022/12/18 06:45:40;;;;;;;;;64.00;51.25;;;;;;;;5060529;28;45305;-77
2022/12/18 06:48:05;;;;;;;;;62.75;50.50;;;;;;;;5060858;28;45394;-76
2022/12/18 06:50:31;;;;;;;;;59.50;47.25;;;;;;;;5060824;28;45396;-77
2022/12/18 06:52:56;;;;;;;;;62.00;50.75;;;;;;;;5059229;28;45358;-77
2022/12/18 06:55:21;;;;;;;;;68.00;55.25;;;;;;;;5060438;28;46204;-76
2022/12/18 06:57:46;;;;;;;;;55.50;46.50;;;;;;;;5059447;28;45389;-77
2022/12/18 07:00:12;;;;;;;;;52.25;46.00;;;;;;;;5059386;28;45335;-76
2022/12/18 07:02:37;;;;;;;;;64.50;52.25;;;;;;;;5060659;28;45335;-76
2022/12/18 07:05:02;;;;;;;;;66.50;52.25;;;;;;;;5060041;28;45398;-76
2022/12/18 07:07:27;;;;;;;;;53.00;46.25;;;;;;;;5060611;28;45329;-76
2022/12/18 07:09:53;;;;;;;;;58.25;48.25;;;;;;;;5060405;28;45315;-76
2022/12/18 07:12:18;;;;;;;;;59.00;49.50;;;;;;;;5060398;28;45404;-77
2022/12/18 07:14:43;;;;;;;;;62.50;51.75;;;;;;;;5060213;28;46530;-77
2022/12/18 07:17:08;;;;;;;;;55.25;47.00;;;;;;;;5058981;28;45356;-76
2022/12/18 07:19:34;;;;;;;;;61.00;51.00;;;;;;;;5060187;28;45604;-76
2022/12/18 07:21:59;;;;;;;;;61.25;50.75;;;;;;;;5060070;28;46514;-76
2022/12/18 07:24:24;;;;;;;;;64.50;53.50;;;;;;;;5059879;28;45531;-76
2022/12/18 07:26:49;;;;;;;;;62.25;53.25;;;;;;;;5059979;28;45560;-76
2022/12/18 07:29:15;;;;;;;;;62.50;49.25;;;;;;;;5060407;28;45295;-76
2022/12/18 07:31:40;;;;;;;;;68.50;55.25;;;;;;;;5059884;28;45436;-76
2022/12/18 07:34:09;;;;;;;;;68.50;56.00;;;;;;;;5060141;28;45292;-77
2022/12/18 07:36:34;;;;;;;;;67.25;53.25;;;;;;;;5059646;28;45370;-76
2022/12/18 07:38:59;;;;;;;;;68.50;54.50;;;;;;;;5059986;28;45382;-76
2022/12/18 07:41:24;;;;;;;;;58.25;51.75;;;;;;;;5059737;28;45261;-76
2022/12/18 07:43:50;;;;;;;;;65.25;53.00;;;;;;;;5059904;28;46493;-77
2022/12/18 07:46:15;;;;;;;;;67.75;49.00;;;;;;;;5055954;28;45420;-77
2022/12/18 07:48:41;;;;;;;;;65.00;53.75;;;;;;;;5051162;28;45473;-76
2022/12/18 07:51:07;;;;;;;;;51.75;45.00;;;;;;;;5059404;28;45320;-76
2022/12/18 07:53:33;;;;;;;;;62.75;51.50;;;;;;;;5059639;28;45484;-77
2022/12/18 07:56:02;;;;;;;;;56.50;48.00;;;;;;;;5058183;28;45275;-76
2022/12/18 07:58:28;;;;;;;;;65.00;55.00;;;;;;;;5057530;28;45337;-79
2022/12/18 08:00:53;;;;;;;;;65.50;51.75;;;;;;;;5047094;28;45592;-77
2022/12/18 08:03:19;;;;;;;;;63.75;51.50;;;;;;;;5059618;28;46557;-79
2022/12/18 08:05:44;;;;;;;;;58.50;50.75;;;;;;;;5058966;28;45977;-79
2022/12/18 08:08:09;;;;;;;;;62.75;52.00;;;;;;;;5043589;28;45291;-78
2022/12/18 08:10:34;;;;;;;;;60.25;49.50;;;;;;;;5057324;28;45476;-77
2022/12/18 08:13:00;;;;;;;;;59.00;49.75;;;;;;;;5059511;28;46289;-77
2022/12/18 08:15:25;;;;;;;;;60.00;49.50;;;;;;;;5057951;28;45291;-77
2022/12/18 08:17:50;;;;;;;;;56.50;50.75;;;;;;;;5059440;28;45409;-77
2022/12/18 08:20:16;;;;;;;;;67.25;57.25;;;;;;;;5059104;28;45259;-77
2022/12/18 08:22:41;;;;;;;;;55.75;45.25;;;;;;;;5059213;28;46079;-77
2022/12/18 08:25:07;;;;;;;;;65.50;56.25;;;;;;;;5058982;28;45642;-78
2022/12/18 08:27:32;;;;;;;;;62.00;48.50;;;;;;;;5058253;28;45374;-77
2022/12/18 08:29:57;;;;;;;;;64.50;50.50;;;;;;;;5055157;28;46008;-77
2022/12/18 08:32:23;;;;;;;;;62.00;50.50;;;;;;;;5046058;28;46060;-77
2022/12/18 08:34:48;;;;;;;;;63.50;53.00;;;;;;;;5056389;28;45308;-78
2022/12/18 08:37:13;;;;;;;;;57.00;47.75;;;;;;;;5058039;28;45245;-77
2022/12/18 08:39:39;;;;;;;;;65.50;49.75;;;;;;;;5059045;28;45122;-77
2022/12/18 08:44:48;;;;;;;;;57.25;47.75;;;;;;;;5058948;28;45213;-77
2022/12/18 08:47:13;;;;;;;;;62.50;51.00;;;;;;;;5058902;28;45255;-77
2022/12/18 08:49:38;;;;;;;;;59.75;49.00;;;;;;;;5058733;28;45345;-77
2022/12/18 08:52:03;;;;;;;;;57.00;47.25;;;;;;;;5058967;28;45357;-77
2022/12/18 08:54:29;;;;;;;;;54.00;46.75;;;;;;;;5057305;28;45230;-75
2022/12/18 08:56:54;;;;;;;;;52.00;41.50;;;;;;;;5059006;28;45213;-77
2022/12/18 08:59:19;;;;;;;;;63.50;49.25;;;;;;;;5058837;28;45417;-76
2022/12/18 09:01:45;;;;;;;;;38.00;33.25;;;;;;;;5058784;28;45366;-76
2022/12/18 09:04:11;;;;;;;;;63.50;49.25;;;;;;;;5053056;28;45255;-76
2022/12/18 09:06:36;;;;;;;;;62.50;51.50;;;;;;;;5054475;28;45444;-77
2022/12/18 09:09:02;;;;;;;;;55.75;45.75;;;;;;;;5058625;28;45588;-75
2022/12/18 09:11:28;;;;;;;;;63.25;51.50;;;;;;;;5057156;28;47665;-78
2022/12/18 09:13:53;;;;;;;;;50.25;44.25;;;;;;;;5051009;28;45328;-78
2022/12/18 09:16:19;;;;;;;;;53.00;46.25;;;;;;;;5054606;28;45320;-77
2022/12/18 09:18:45;;;;;;;;;63.25;51.50;;;;;;;;5050159;28;45740;-78
2022/12/18 09:21:11;;;;;;;;;53.00;44.75;;;;;;;;5051407;28;47981;-77
2022/12/18 09:23:36;;;;;;;;;52.50;45.00;;;;;;;;5045617;28;45348;-77
2022/12/18 09:26:01;;;;;;;;;57.75;46.75;;;;;;;;5055716;28;45475;-77
2022/12/18 09:28:27;;;;;;;;;51.25;45.50;;;;;;;;5056600;28;45720;-77
2022/12/18 09:30:52;;;;;;;;;50.00;42.50;;;;;;;;5046878;28;47101;-77
2022/12/18 09:33:17;;;;;;;;;60.00;46.50;;;;;;;;5048660;28;45704;-75
2022/12/18 09:35:43;;;;;;;;;56.25;45.00;;;;;;;;5050190;28;45405;-76
2022/12/18 09:38:11;;;;;;;;;52.75;44.75;;;;;;;;5054944;28;45559;-77
2022/12/18 09:40:41;;;;;;;;;57.75;46.25;;;;;;;;5056599;28;48373;-78
2022/12/18 09:43:13;;;;;;;;;47.50;43.25;;;;;;;;5059396;28;45284;-77
2022/12/18 09:45:43;;;;;;;;;57.50;47.50;;;;;;;;5060830;28;45560;-77
2022/12/18 09:48:28;;;;;;;;;49.50;41.25;;;;;;;;5060132;28;45731;-78
2022/12/18 09:50:58;;;;;;;;;43.50;35.25;;;;;;;;5058164;28;48218;-77
2022/12/18 09:53:26;;;;;;;;;59.50;44.25;;;;;;;;5054738;28;46191;-78
2022/12/18 09:55:52;;;;;;;;;47.50;44.25;;;;;;;;5055261;28;45378;-77
2022/12/18 09:58:32;;;;;;;;;45.50;41.75;;;;;;;;5059603;28;47165;-77
2022/12/18 10:00:58;;;;;;;;;47.25;44.00;;;;;;;;5060718;28;46761;-79
2022/12/18 10:03:23;;;;;;;;;59.25;49.25;;;;;;;;5058116;28;45947;-77
2022/12/18 10:06:00;;;;;;;;;50.00;42.50;;;;;;;;5056081;28;45265;-77
2022/12/18 10:08:44;;;;;;;;;62.00;45.00;;;;;;;;5046050;28;45519;-79
2022/12/18 10:11:30;;;;;;;;;54.25;46.75;;;;;;;;5040892;28;47279;-78
2022/12/18 10:14:07;;;;;;;;;50.00;43.00;;;;;;;;5048365;28;45498;-79
2022/12/18 10:16:38;;;;;;;;;50.00;42.25;;;;;;;;5054281;28;45396;-79
2022/12/18 10:19:18;;;;;;;;;57.75;46.75;;;;;;;;5057455;28;45573;-79
2022/12/18 10:22:06;;;;;;;;;50.75;44.25;;;;;;;;5047221;28;48666;-79
2022/12/18 10:24:43;;;;;;;;;51.50;44.50;;;;;;;;5060692;28;45295;-79
2022/12/18 10:27:14;;;;;;;;;49.75;43.00;;;;;;;;5059477;28;45398;-78
2022/12/18 10:29:40;;;;;;;;;52.50;44.25;;;;;;;;5060675;28;45526;-77
2022/12/18 10:32:07;;;;;;;;;48.25;42.50;;;;;;;;5061026;28;46449;-75
2022/12/18 10:34:32;;;;;;;;;49.50;42.75;;;;;;;;5054798;28;45806;-78
2022/12/18 10:37:00;;;;;;;;;57.25;47.00;;;;;;;;5049080;28;45444;-78
2022/12/18 10:39:26;;;;;;;;;47.50;43.00;;;;;;;;5049809;28;45446;-77
2022/12/18 10:41:51;;;;;;;;;49.75;44.25;;;;;;;;5050059;28;45962;-78
2022/12/18 10:44:17;;;;;;;;;40.50;34.25;;;;;;;;5058192;28;45502;-77
2022/12/18 10:46:43;;;;;;;;;47.75;40.75;;;;;;;;5054146;28;45433;-78
2022/12/18 10:49:18;;;;;;;;;54.00;43.00;;;;;;;;5060198;28;45472;-77
2022/12/18 10:51:44;;;;;;;;;40.75;38.00;;;;;;;;5058058;28;47555;-77
2022/12/18 10:54:15;;;;;;;;;46.75;42.00;;;;;;;;5046762;28;45306;-79
2022/12/18 10:56:40;;;;;;;;;51.25;43.25;;;;;;;;5060626;28;45236;-78
2022/12/18 10:59:07;;;;;;;;;47.50;39.25;;;;;;;;5060615;28;45314;-78
2022/12/18 11:01:44;;;;;;;;;50.25;40.75;;;;;;;;5060262;28;46250;-77
2022/12/18 11:04:15;;;;;;;;;49.75;40.75;;;;;;;;5049475;28;45418;-78
2022/12/18 11:07:00;;;;;;;;;56.00;47.00;;;;;;;;5066942;28;45464;-77
2022/12/18 11:09:27;;;;;;;;;50.25;41.25;;;;;;;;5055477;28;45761;-77
2022/12/18 11:11:54;;;;;;;;;47.75;39.50;;;;;;;;5059937;28;46262;-77
2022/12/18 11:14:19;;;;;;;;;39.75;36.75;;;;;;;;5060343;28;45330;-77
2022/12/18 11:16:46;;;;;;;;;46.00;39.00;;;;;;;;5060169;28;45283;-77
2022/12/18 11:19:11;;;;;;;;;45.00;40.50;;;;;;;;5060169;28;45398;-77
2022/12/18 11:21:41;;;;;;;;;57.75;45.50;;;;;;;;5059738;28;45332;-77
2022/12/18 11:24:18;;;;;;;;;46.25;39.50;;;;;;;;5056419;28;45327;-77
2022/12/18 11:26:43;;;;;;;;;43.75;41.00;;;;;;;;5053425;28;45344;-77
2022/12/18 11:29:10;;;;;;;;;44.25;41.00;;;;;;;;5049226;28;45329;-77
2022/12/18 11:31:36;;;;;;;;;38.25;36.75;;;;;;;;5057821;28;45652;-77
2022/12/18 11:34:26;;;;;;;;;47.00;39.50;;;;;;;;5059817;28;45441;-77
2022/12/18 11:36:51;;;;;;;;;52.25;42.00;;;;;;;;5060300;28;45240;-76
2022/12/18 11:39:35;;;;;;;;;39.00;35.00;;;;;;;;5059553;28;45450;-77
2022/12/18 11:42:12;;;;;;;;;44.50;38.50;;;;;;;;5060044;28;45396;-77
2022/12/18 11:44:49;;;;;;;;;47.75;42.25;;;;;;;;5059627;28;45291;-77
2022/12/18 11:47:33;;;;;;;;;42.00;40.25;;;;;;;;5058504;28;45322;-77
2022/12/18 11:50:02;;;;;;;;;53.75;42.00;;;;;;;;5059461;28;45567;-76
2022/12/18 11:52:38;;;;;;;;;45.50;39.75;;;;;;;;5059086;28;46332;-77
2022/12/18 11:55:27;;;;;;;;;50.00;40.25;;;;;;;;5058361;28;45434;-76
2022/12/18 11:57:58;;;;;;;;;50.50;42.00;;;;;;;;5059919;28;45224;-77
2022/12/18 12:00:24;;;;;;;;;52.75;43.00;;;;;;;;5058008;28;46059;-77
2022/12/18 12:03:07;;;;;;;;;44.25;40.00;;;;;;;;5059035;28;45287;-76
2022/12/18 12:05:40;;;;;;;;;39.50;35.00;;;;;;;;5059001;28;45360;-76
2022/12/18 12:08:14;;;;;;;;;47.25;38.25;;;;;;;;5059645;28;45371;-76
2022/12/18 12:10:45;;;;;;;;;46.50;41.75;;;;;;;;5059163;28;45160;-76
2022/12/18 12:13:19;;;;;;;;;45.75;42.50;;;;;;;;5058005;28;47189;-78
2022/12/18 12:15:44;;;;;;;;;50.25;40.75;;;;;;;;5036634;28;45455;-77
2022/12/18 12:18:28;;;;;;;;;44.00;38.75;;;;;;;;5049741;28;45397;-76
2022/12/18 12:21:14;;;;;;;;;47.25;41.00;;;;;;;;5044253;28;45409;-76
2022/12/18 12:23:39;;;;;;;;;50.00;42.50;;;;;;;;5038617;28;48249;-77
2022/12/18 12:26:10;;;;;;;;;49.25;40.50;;;;;;;;5058616;28;45750;-77
2022/12/18 12:28:56;;;;;;;;;41.25;40.25;;;;;;;;5058704;28;45373;-76
2022/12/18 12:31:37;;;;;;;;;59.75;48.00;;;;;;;;5058134;28;45378;-76
2022/12/18 12:34:14;;;;;;;;;42.25;37.75;;;;;;;;5054888;28;45508;-77
2022/12/18 12:36:57;;;;;;;;;44.00;40.00;;;;;;;;5058134;28;45351;-77
2022/12/18 12:39:26;;;;;;;;;44.00;38.25;;;;;;;;5037734;28;45498;-77
2022/12/18 12:44:51;;;;;;;;;46.75;39.25;;;;;;;;5054923;28;45745;-78
2022/12/18 12:47:20;;;;;;;;;48.25;40.50;;;;;;;;5058308;28;45422;-77
2022/12/18 12:49:47;;;;;;;;;45.75;38.25;;;;;;;;5045432;28;45425;-77
2022/12/18 12:52:16;;;;;;;;;47.00;37.00;;;;;;;;5058365;28;45516;-78
2022/12/18 12:54:42;;;;;;;;;43.25;37.00;;;;;;;;5058419;28;45444;-77
2022/12/18 12:57:26;;;;;;;;;45.00;39.50;;;;;;;;5057956;28;45318;-76
2022/12/18 12:59:57;;;;;;;;;46.00;37.25;;;;;;;;5045770;28;45237;-77
2022/12/18 13:02:28;;;;;;;;;37.75;34.25;;;;;;;;5056631;28;45980;-77
2022/12/18 13:05:01;;;;;;;;;40.50;36.75;;;;;;;;5056606;28;46077;-77
2022/12/18 13:07:33;;;;;;;;;52.00;38.25;;;;;;;;5052341;28;45342;-76
2022/12/18 13:10:19;;;;;;;;;42.00;38.50;;;;;;;;5051057;28;45436;-77
2022/12/18 13:13:01;;;;;;;;;44.00;39.75;;;;;;;;5057721;28;45349;-77
2022/12/18 13:15:40;;;;;;;;;36.50;32.50;;;;;;;;5057111;28;47660;-77
2022/12/18 13:18:08;;;;;;;;;41.00;36.50;;;;;;;;5061645;28;45428;-77
2022/12/18 13:20:56;;;;;;;;;44.75;40.00;;;;;;;;5061715;28;45307;-77
2022/12/18 13:23:25;;;;;;;;;40.25;38.25;;;;;;;;5060387;28;45614;-77
2022/12/18 13:25:51;;;;;;;;;41.75;37.50;;;;;;;;5060432;28;47289;-77
2022/12/18 13:28:20;;;;;;;;;42.00;36.50;;;;;;;;5061979;28;45327;-78
2022/12/18 13:30:47;;;;;;;;;45.50;40.00;;;;;;;;5060462;28;45469;-77
2022/12/18 13:33:13;;;;;;;;;45.50;40.50;;;;;;;;5060939;28;45395;-77
2022/12/18 13:35:39;;;;;;;;;44.00;37.00;;;;;;;;5061311;28;45368;-77
2022/12/18 13:38:23;;;;;;;;;46.25;41.25;;;;;;;;5060224;28;45379;-78
2022/12/18 13:40:48;;;;;;;;;36.75;34.75;;;;;;;;5060496;28;45350;-77
2022/12/18 13:43:19;;;;;;;;;41.75;38.75;;;;;;;;5061892;28;45317;-77
2022/12/18 13:45:47;;;;;;;;;41.25;37.75;;;;;;;;5061276;28;46252;-78
2022/12/18 13:48:21;;;;;;;;;45.75;40.00;;;;;;;;5061470;28;45460;-77
2022/12/18 13:51:00;;;;;;;;;49.75;41.00;;;;;;;;5060203;28;45457;-77
2022/12/18 13:53:32;;;;;;;;;44.75;39.25;;;;;;;;5061365;28;45267;-79
2022/12/18 13:55:57;;;;;;;;;40.25;37.50;;;;;;;;5061303;28;45310;-79
2022/12/18 13:58:22;;;;;;;;;47.75;41.00;;;;;;;;5060223;28;45388;-79
2022/12/18 14:00:47;;;;;;;;;40.75;36.75;;;;;;;;5061572;28;45314;-79
2022/12/18 14:03:18;;;;;;;;;57.75;47.00;;;;;;;;5060183;28;46071;-76
2022/12/18 14:05:45;;;;;;;;;52.75;40.50;;;;;;;;5060554;28;45326;-76
2022/12/18 14:08:12;;;;;;;;;58.75;48.00;;;;;;;;5053338;28;45462;-78
2022/12/18 14:10:45;;;;;;;;;63.00;51.75;;;;;;;;5060267;28;45315;-77
2022/12/18 14:13:15;;;;;;;;;57.25;44.25;;;;;;;;5059364;28;46070;-78
2022/12/18 14:15:40;;;;;;;;;54.25;45.00;;;;;;;;5048711;28;47716;-78
2022/12/18 14:18:24;;;;;;;;;60.00;49.25;;;;;;;;5054878;28;45990;-77
2022/12/18 14:20:50;;;;;;;;;47.00;41.75;;;;;;;;5060324;28;45377;-77
2022/12/18 14:23:34;;;;;;;;;44.00;39.00;;;;;;;;5058826;28;45555;-78
2022/12/18 14:26:00;;;;;;;;;51.25;42.25;;;;;;;;5049221;28;45622;-78
2022/12/18 14:28:26;;;;;;;;;43.75;39.50;;;;;;;;5052578;28;46150;-77
2022/12/18 14:30:52;;;;;;;;;40.50;37.00;;;;;;;;5058709;28;45315;-77